sensor_id;sensor_type;location;lat;lon;timestamp;P1;P2;P0
78999;PMS7003;68406;53.914;27.416;2023-06-26T00:02:00;4.1;3.6;3.1
78999;PMS7003;68406;53.914;27.416;2023-06-26T00:07:46;4.3;3.7;3.1
78999;PMS7003;68406;53.914;27.416;2023-06-26T00:12:22;4.5;4.3;3.5
78999;PMS7003;68406;53.914;27.416;2023-06-26T00:17:08;5;4.3;3.6
78999;PMS7003;68406;53.914;27.416;2023-06-26T00:22:30;5.6;4.8;3.9
78999;PMS7003;68406;53.914;27.416;2023-06-26T00:27:46;5.4;4.6;3.8
78999;PMS7003;68406;53.914;27.416;2023-06-26T00:32:00;5.4;4.8;3.8
78999;PMS7003;68406;53.914;27.416;2023-06-26T00:37:00;5.7;5;4.2
78999;PMS7003;68406;53.914;27.416;2023-06-26T00:42:30;6.9;5.5;4.4
78999;PMS7003;68406;53.914;27.416;2023-06-26T00:47:00;6.5;5.7;4.6
78999;PMS7003;68406;53.914;27.416;2023-06-26T00:52:00;6.5;5.3;4.5
78999;PMS7003;68406;53.914;27.416;2023-06-26T00:57:14;5.6;5.3;4.4
78999;PMS7003;68406;53.914;27.416;2023-06-26T01:02:46;6.5;5.5;4.6
78999;PMS7003;68406;53.914;27.416;2023-06-26T01:07:22;6.2;5.6;4.5
78999;PMS7003;68406;53.914;27.416;2023-06-26T01:12:00;5.9;5.5;4.5
78999;PMS7003;68406;53.914;27.416;2023-06-26T01:17:46;6;5.6;4.6
78999;PMS7003;68406;53.914;27.416;2023-06-26T01:22:31;5.3;4.8;4.2
78999;PMS7003;68406;53.914;27.416;2023-06-26T01:27:00;5.6;5.2;4.3
78999;PMS7003;68406;53.914;27.416;2023-06-26T01:32:24;6.5;5.2;4.2
78999;PMS7003;68406;53.914;27.416;2023-06-26T01:37:48;5.7;5.1;4
78999;PMS7003;68406;53.914;27.416;2023-06-26T01:42:24;5.5;4.8;3.9
78999;PMS7003;68406;53.914;27.416;2023-06-26T01:47:40;5.8;5.4;4.4
78999;PMS7003;68406;53.914;27.416;2023-06-26T01:52:35;6.4;5.5;4.6
78999;PMS7003;68406;53.914;27.416;2023-06-26T01:57:32;6.8;5.7;4.6
78999;PMS7003;68406;53.914;27.416;2023-06-26T02:02:00;6.1;5.6;4.6
78999;PMS7003;68406;53.914;27.416;2023-06-26T02:07:00;6.9;5.4;4.5
78999;PMS7003;68406;53.914;27.416;2023-06-26T02:12:00;6.2;5.6;4.6
78999;PMS7003;68406;53.914;27.416;2023-06-26T02:17:06;6.5;5.3;4.4
78999;PMS7003;68406;53.914;27.416;2023-06-26T02:22:00;6.1;5.6;4.7
78999;PMS7003;68406;53.914;27.416;2023-06-26T02:27:40;5.4;5.2;4.4
78999;PMS7003;68406;53.914;27.416;2023-06-26T02:32:02;6;5.5;4.4
78999;PMS7003;68406;53.914;27.416;2023-06-26T02:37:32;6.6;5.7;4.7
78999;PMS7003;68406;53.914;27.416;2023-06-26T02:42:00;6.3;5.8;4.7
78999;PMS7003;68406;53.914;27.416;2023-06-26T02:47:00;6.8;5.5;4.6
78999;PMS7003;68406;53.914;27.416;2023-06-26T02:52:00;6.4;5.6;4.7
78999;PMS7003;68406;53.914;27.416;2023-06-26T02:57:48;6.1;5.6;4.5
78999;PMS7003;68406;53.914;27.416;2023-06-26T03:02:16;5.9;5.4;4.4
78999;PMS7003;68406;53.914;27.416;2023-06-26T03:07:32;5.5;5.2;4.3
78999;PMS7003;68406;53.914;27.416;2023-06-26T03:12:48;6.4;5.1;4.4
78999;PMS7003;68406;53.914;27.416;2023-06-26T03:17:40;5.1;4.9;4.2
78999;PMS7003;68406;53.914;27.416;2023-06-26T03:22:44;6.1;5.4;4.2
78999;PMS7003;68406;53.914;27.416;2023-06-26T03:27:40;6.2;5.3;4.3
78999;PMS7003;68406;53.914;27.416;2023-06-26T03:32:48;4.3;4;3
78999;PMS7003;68406;53.914;27.416;2023-06-26T03:37:32;7.7;6.5;5.3
78999;PMS7003;68406;53.914;27.416;2023-06-26T03:42:38;6.2;5.6;4.8
78999;PMS7003;68406;53.914;27.416;2023-06-26T03:47:48;7.3;6.7;5.5
78999;PMS7003;68406;53.914;27.416;2023-06-26T03:52:06;7.8;6.8;5.5
78999;PMS7003;68406;53.914;27.416;2023-06-26T03:57:00;6.8;5.8;4.7
78999;PMS7003;68406;53.914;27.416;2023-06-26T04:02:24;6.9;5.6;4.4
78999;PMS7003;68406;53.914;27.416;2023-06-26T04:07:49;6;5.5;4.6
78999;PMS7003;68406;53.914;27.416;2023-06-26T04:12:32;6.4;5.8;4.6
78999;PMS7003;68406;53.914;27.416;2023-06-26T04:17:40;6.6;5.8;4.8
78999;PMS7003;68406;53.914;27.416;2023-06-26T04:22:14;6.9;6.3;4.8
78999;PMS7003;68406;53.914;27.416;2023-06-26T04:27:00;6.8;6.2;5.1
78999;PMS7003;68406;53.914;27.416;2023-06-26T04:32:48;6.3;5.1;4
78999;PMS7003;68406;53.914;27.416;2023-06-26T04:37:25;5.6;5;4.1
78999;PMS7003;68406;53.914;27.416;2023-06-26T04:42:10;6.7;6.1;4.9
78999;PMS7003;68406;53.914;27.416;2023-06-26T04:47:32;6.6;5.6;4.6
78999;PMS7003;68406;53.914;27.416;2023-06-26T04:52:46;5.2;4.9;4
78999;PMS7003;68406;53.914;27.416;2023-06-26T04:57:10;6;5.6;4.6
78999;PMS7003;68406;53.914;27.416;2023-06-26T05:02:24;6.9;5.9;4.7
78999;PMS7003;68406;53.914;27.416;2023-06-26T05:07:26;6.9;5.4;4.3
78999;PMS7003;68406;53.914;27.416;2023-06-26T05:12:24;6.9;5.8;4.8
78999;PMS7003;68406;53.914;27.416;2023-06-26T05:17:16;5.8;5.1;4.4
78999;PMS7003;68406;53.914;27.416;2023-06-26T05:22:00;7.5;6.3;5.1
78999;PMS7003;68406;53.914;27.416;2023-06-26T05:27:46;6.9;6.2;5.1
78999;PMS7003;68406;53.914;27.416;2023-06-26T05:32:10;6.2;5.6;4.5
78999;PMS7003;68406;53.914;27.416;2023-06-26T05:37:00;6.3;5.7;4.6
78999;PMS7003;68406;53.914;27.416;2023-06-26T05:42:46;6.1;5.4;4.4
78999;PMS7003;68406;53.914;27.416;2023-06-26T05:47:32;5.6;4.9;4.2
78999;PMS7003;68406;53.914;27.416;2023-06-26T05:52:16;6.3;5.2;4.5
78999;PMS7003;68406;53.914;27.416;2023-06-26T05:57:10;6.2;5.1;4.3
78999;PMS7003;68406;53.914;27.416;2023-06-26T06:02:30;5.7;5.6;4.5
78999;PMS7003;68406;53.914;27.416;2023-06-26T06:07:10;6.6;5.7;4.6
78999;PMS7003;68406;53.914;27.416;2023-06-26T06:12:24;4.5;3.8;3
78999;PMS7003;68406;53.914;27.416;2023-06-26T06:17:44;4.8;4.2;3.3
78999;PMS7003;68406;53.914;27.416;2023-06-26T06:22:30;4.6;4.1;3.3
78999;PMS7003;68406;53.914;27.416;2023-06-26T06:27:16;5.2;4.7;3.7
78999;PMS7003;68406;53.914;27.416;2023-06-26T06:32:22;5.5;4.5;3.6
78999;PMS7003;68406;53.914;27.416;2023-06-26T06:37:01;4.5;4;3
78999;PMS7003;68406;53.914;27.416;2023-06-26T06:42:00;4.7;4.4;3.3
78999;PMS7003;68406;53.914;27.416;2023-06-26T06:47:14;4.9;4.1;3.3
78999;PMS7003;68406;53.914;27.416;2023-06-26T06:52:46;5.9;5.1;4.4
78999;PMS7003;68406;53.914;27.416;2023-06-26T06:57:30;5.2;4.7;3.7
78999;PMS7003;68406;53.914;27.416;2023-06-26T07:02:24;4.5;3.8;3.2
78999;PMS7003;68406;53.914;27.416;2023-06-26T07:07:00;4.1;3.4;2.6
78999;PMS7003;68406;53.914;27.416;2023-06-26T07:12:00;4.4;4.1;3.2
78999;PMS7003;68406;53.914;27.416;2023-06-26T07:17:06;4.1;3.5;2.8
78999;PMS7003;68406;53.914;27.416;2023-06-26T07:22:46;4;3.3;2.7
78999;PMS7003;68406;53.914;27.416;2023-06-26T07:27:46;4.3;3.6;2.8
78999;PMS7003;68406;53.914;27.416;2023-06-26T07:32:30;4.1;3.4;2.6
78999;PMS7003;68406;53.914;27.416;2023-06-26T07:37:46;3.6;2.9;2.4
78999;PMS7003;68406;53.914;27.416;2023-06-26T07:42:28;1.9;1.8;1.4
78999;PMS7003;68406;53.914;27.416;2023-06-26T07:47:00;3.1;2.7;2.2
78999;PMS7003;68406;53.914;27.416;2023-06-26T07:52:38;3.1;2.6;2
78999;PMS7003;68406;53.914;27.416;2023-06-26T07:57:46;2.6;2.4;1.9
78999;PMS7003;68406;53.914;27.416;2023-06-26T08:02:46;2.5;2.1;1.7
78999;PMS7003;68406;53.914;27.416;2023-06-26T08:07:46;3;2.4;1.9
78999;PMS7003;68406;53.914;27.416;2023-06-26T08:12:46;2.1;1.7;1.3
78999;PMS7003;68406;53.914;27.416;2023-06-26T08:17:10;2.3;1.8;1.5
78999;PMS7003;68406;53.914;27.416;2023-06-26T08:22:14;2.6;2;1.5
78999;PMS7003;68406;53.914;27.416;2023-06-26T08:27:36;2.5;2.3;1.9
78999;PMS7003;68406;53.914;27.416;2023-06-26T08:32:44;2.3;2;1.6
78999;PMS7003;68406;53.914;27.416;2023-06-26T08:37:30;3.1;2.4;2.1
78999;PMS7003;68406;53.914;27.416;2023-06-26T08:42:34;2.4;2;1.5
78999;PMS7003;68406;53.914;27.416;2023-06-26T08:47:40;3.1;2.7;2.3
78999;PMS7003;68406;53.914;27.416;2023-06-26T08:52:02;2.4;1.9;1.6
78999;PMS7003;68406;53.914;27.416;2023-06-26T08:57:00;1.9;1.8;1.5
78999;PMS7003;68406;53.914;27.416;2023-06-26T09:02:00;2.5;2.2;1.8
78999;PMS7003;68406;53.914;27.416;2023-06-26T09:07:45;2.5;2;1.5
78999;PMS7003;68406;53.914;27.416;2023-06-26T09:12:16;2.1;2;1.5
78999;PMS7003;68406;53.914;27.416;2023-06-26T09:17:24;2.1;1.6;1.3
78999;PMS7003;68406;53.914;27.416;2023-06-26T09:22:20;2.3;1.9;1.7
78999;PMS7003;68406;53.914;27.416;2023-06-26T09:27:00;2.5;1.9;1.6
78999;PMS7003;68406;53.914;27.416;2023-06-26T09:32:42;2;1.8;1.5
78999;PMS7003;68406;53.914;27.416;2023-06-26T09:37:22;1.7;1.5;1.1
78999;PMS7003;68406;53.914;27.416;2023-06-26T09:42:14;1.8;1.4;1.1
78999;PMS7003;68406;53.914;27.416;2023-06-26T09:47:31;2;1.5;1.2
78999;PMS7003;68406;53.914;27.416;2023-06-26T09:52:44;1.9;1.4;1
78999;PMS7003;68406;53.914;27.416;2023-06-26T09:57:20;2.1;1.7;1.3
78999;PMS7003;68406;53.914;27.416;2023-06-26T10:02:08;1.8;1.6;1.3
78999;PMS7003;68406;53.914;27.416;2023-06-26T10:07:28;1.7;1.3;1
78999;PMS7003;68406;53.914;27.416;2023-06-26T10:12:23;2.4;1.9;1.5
78999;PMS7003;68406;53.914;27.416;2023-06-26T10:17:16;1.1;1.1;0.9
78999;PMS7003;68406;53.914;27.416;2023-06-26T10:22:14;2;1.5;1.2
78999;PMS7003;68406;53.914;27.416;2023-06-26T10:27:38;1.5;1.4;0.9
78999;PMS7003;68406;53.914;27.416;2023-06-26T10:32:10;2.3;1.8;1.5
78999;PMS7003;68406;53.914;27.416;2023-06-26T10:37:12;1.4;1.2;0.9
78999;PMS7003;68406;53.914;27.416;2023-06-26T10:42:44;1.4;1.2;0.8
78999;PMS7003;68406;53.914;27.416;2023-06-26T10:47:31;1.2;1.1;0.8
78999;PMS7003;68406;53.914;27.416;2023-06-26T10:52:14;1.4;1.1;0.8
78999;PMS7003;68406;53.914;27.416;2023-06-26T10:57:36;0.8;0.8;0.6
78999;PMS7003;68406;53.914;27.416;2023-06-26T11:02:28;1.5;1.2;0.8
78999;PMS7003;68406;53.914;27.416;2023-06-26T11:07:15;1;0.9;0.7
78999;PMS7003;68406;53.914;27.416;2023-06-26T11:12:38;1.7;1.2;0.9
78999;PMS7003;68406;53.914;27.416;2023-06-26T11:17:43;1.9;1.6;1.2
78999;PMS7003;68406;53.914;27.416;2023-06-26T11:22:28;1.8;1.4;1.1
78999;PMS7003;68406;53.914;27.416;2023-06-26T11:27:08;1.8;1.5;1.2
78999;PMS7003;68406;53.914;27.416;2023-06-26T11:32:20;3.1;2.6;2.1
78999;PMS7003;68406;53.914;27.416;2023-06-26T11:37:00;3.6;3;2.3
78999;PMS7003;68406;53.914;27.416;2023-06-26T11:42:00;3;2.6;2.3
78999;PMS7003;68406;53.914;27.416;2023-06-26T11:47:25;3.4;3;2.4
78999;PMS7003;68406;53.914;27.416;2023-06-26T11:52:16;2.7;2.3;1.8
78999;PMS7003;68406;53.914;27.416;2023-06-26T11:57:28;2.4;2.1;1.8
78999;PMS7003;68406;53.914;27.416;2023-06-26T12:02:30;2.4;2.2;1.7
78999;PMS7003;68406;53.914;27.416;2023-06-26T12:07:39;2.4;2;1.7
78999;PMS7003;68406;53.914;27.416;2023-06-26T12:12:01;3.4;2.5;1.9
78999;PMS7003;68406;53.914;27.416;2023-06-26T12:17:27;2.9;2.6;2
78999;PMS7003;68406;53.914;27.416;2023-06-26T12:22:47;2.9;2.4;1.9
78999;PMS7003;68406;53.914;27.416;2023-06-26T12:27:47;2.6;2.2;1.6
78999;PMS7003;68406;53.914;27.416;2023-06-26T12:32:47;2.8;2.5;1.8
78999;PMS7003;68406;53.914;27.416;2023-06-26T12:37:47;2.5;2.2;1.8
78999;PMS7003;68406;53.914;27.416;2023-06-26T12:42:01;3;2.7;2.1
78999;PMS7003;68406;53.914;27.416;2023-06-26T12:47:01;2.3;2.2;1.9
78999;PMS7003;68406;53.914;27.416;2023-06-26T12:52:41;2.9;2.5;2
78999;PMS7003;68406;53.914;27.416;2023-06-26T12:57:49;2.7;2.3;1.8
78999;PMS7003;68406;53.914;27.416;2023-06-26T13:02:33;3.5;3;2.3
78999;PMS7003;68406;53.914;27.416;2023-06-26T13:07:41;3.7;3.4;2.5
78999;PMS7003;68406;53.914;27.416;2023-06-26T13:12:49;2.7;2.2;1.8
78999;PMS7003;68406;53.914;27.416;2023-06-26T13:17:01;3;2.6;2.1
78999;PMS7003;68406;53.914;27.416;2023-06-26T13:22:25;2.7;2;1.6
78999;PMS7003;68406;53.914;27.416;2023-06-26T13:27:01;2.6;2.2;1.7
78999;PMS7003;68406;53.914;27.416;2023-06-26T13:32:49;3.4;2.7;2.3
78999;PMS7003;68406;53.914;27.416;2023-06-26T13:37:33;2.4;2.2;1.5
78999;PMS7003;68406;53.914;27.416;2023-06-26T13:42:03;3.3;2.6;2.1
78999;PMS7003;68406;53.914;27.416;2023-06-26T13:47:25;2;1.8;1.5
78999;PMS7003;68406;53.914;27.416;2023-06-26T13:52:01;2.2;2;1.6
78999;PMS7003;68406;53.914;27.416;2023-06-26T13:57:49;2.8;2.6;2.2
78999;PMS7003;68406;53.914;27.416;2023-06-26T14:02:15;3.4;2.8;2.3
78999;PMS7003;68406;53.914;27.416;2023-06-26T14:07:01;2.1;2;1.6
78999;PMS7003;68406;53.914;27.416;2023-06-26T14:12:27;1.4;1.1;0.9
78999;PMS7003;68406;53.914;27.416;2023-06-26T14:17:49;1.5;1.5;1.3
78999;PMS7003;68406;53.914;27.416;2023-06-26T14:22:11;2.3;2;1.6
78999;PMS7003;68406;53.914;27.416;2023-06-26T14:27:01;2;1.8;1.7
78999;PMS7003;68406;53.914;27.416;2023-06-26T14:32:19;2.7;2.4;2.1
78999;PMS7003;68406;53.914;27.416;2023-06-26T14:37:41;3.8;3.7;3.3
78999;PMS7003;68406;53.914;27.416;2023-06-26T14:42:11;8.8;8.2;7.8
78999;PMS7003;68406;53.914;27.416;2023-06-26T14:47:25;10.4;10.1;9.7
78999;PMS7003;68406;53.914;27.416;2023-06-26T14:52:49;5.7;5;4.3
78999;PMS7003;68406;53.914;27.416;2023-06-26T14:57:25;5.6;4.7;4
78999;PMS7003;68406;53.914;27.416;2023-06-26T15:02:09;5.1;4.6;3.9
78999;PMS7003;68406;53.914;27.416;2023-06-26T15:07:35;5;4.6;3.9
78999;PMS7003;68406;53.914;27.416;2023-06-26T15:12:33;4.9;4.5;3.9
78999;PMS7003;68406;53.914;27.416;2023-06-26T15:17:11;6.5;5.7;4.7
78999;PMS7003;68406;53.914;27.416;2023-06-26T15:22:39;4.9;4.5;3.6
78999;PMS7003;68406;53.914;27.416;2023-06-26T15:27:33;5.9;5.7;5
78999;PMS7003;68406;53.914;27.416;2023-06-26T15:32:11;5.3;5;4.3
78999;PMS7003;68406;53.914;27.416;2023-06-26T15:37:25;5.7;4.7;4.2
78999;PMS7003;68406;53.914;27.416;2023-06-26T15:42:49;5.6;5;4.2
78999;PMS7003;68406;53.914;27.416;2023-06-26T15:47:33;5.1;4.4;3.8
78999;PMS7003;68406;53.914;27.416;2023-06-26T15:52:17;5.1;4.4;3.6
78999;PMS7003;68406;53.914;27.416;2023-06-26T15:57:25;4.4;4;3.3
78999;PMS7003;68406;53.914;27.416;2023-06-26T16:02:11;4.3;3.6;3
78999;PMS7003;68406;53.914;27.416;2023-06-26T16:07:33;4.6;3.6;2.9
78999;PMS7003;68406;53.914;27.416;2023-06-26T16:12:49;4.3;3.8;3.1
78999;PMS7003;68406;53.914;27.416;2023-06-26T16:17:01;3.5;3.4;2.8
78999;PMS7003;68406;53.914;27.416;2023-06-26T16:22:33;5.6;4.6;3.8
78999;PMS7003;68406;53.914;27.416;2023-06-26T16:27:47;5.2;4.5;3.7
78999;PMS7003;68406;53.914;27.416;2023-06-26T16:32:41;4.7;4;3.3
78999;PMS7003;68406;53.914;27.416;2023-06-26T16:37:11;5.3;4.7;3.6
78999;PMS7003;68406;53.914;27.416;2023-06-26T16:42:41;5.4;4.7;3.6
78999;PMS7003;68406;53.914;27.416;2023-06-26T16:47:49;4.6;3.8;3
78999;PMS7003;68406;53.914;27.416;2023-06-26T16:52:49;5;4.6;3.8
78999;PMS7003;68406;53.914;27.416;2023-06-26T16:57:33;4.6;4.3;3.4
78999;PMS7003;68406;53.914;27.416;2023-06-26T17:02:49;5;4.5;3.8
78999;PMS7003;68406;53.914;27.416;2023-06-26T17:07:01;5.6;4.9;3.9
78999;PMS7003;68406;53.914;27.416;2023-06-26T17:12:11;5.2;4.9;4.1
78999;PMS7003;68406;53.914;27.416;2023-06-26T17:17:25;6.7;5.6;4.4
78999;PMS7003;68406;53.914;27.416;2023-06-26T17:22:47;5;4.2;3.6
78999;PMS7003;68406;53.914;27.416;2023-06-26T17:27:33;4.5;3.7;3
78999;PMS7003;68406;53.914;27.416;2023-06-26T17:32:41;5.5;4.1;3.1
78999;PMS7003;68406;53.914;27.416;2023-06-26T17:37:51;3.4;2.9;2.3
78999;PMS7003;68406;53.914;27.416;2023-06-26T17:42:17;4.6;4.1;3.3
78999;PMS7003;68406;53.914;27.416;2023-06-26T17:47:01;3.9;3.4;2.8
78999;PMS7003;68406;53.914;27.416;2023-06-26T17:52:25;4.8;4.5;3.6
78999;PMS7003;68406;53.914;27.416;2023-06-26T17:57:51;4.3;3.6;3
78999;PMS7003;68406;53.914;27.416;2023-06-26T18:02:33;4.4;4.2;3.5
78999;PMS7003;68406;53.914;27.416;2023-06-26T18:07:25;4.6;3.6;2.9
78999;PMS7003;68406;53.914;27.416;2023-06-26T18:17:01;4.4;4;3.1
78999;PMS7003;68406;53.914;27.416;2023-06-26T18:22:51;4.8;4.1;3.3
78999;PMS7003;68406;53.914;27.416;2023-06-26T18:27:01;3.8;3.4;2.8
78999;PMS7003;68406;53.914;27.416;2023-06-26T18:32:01;4.4;3.8;3
78999;PMS7003;68406;53.914;27.416;2023-06-26T18:37:35;4.4;3.9;3.1
78999;PMS7003;68406;53.914;27.416;2023-06-26T18:42:51;4.4;4;3.3
78999;PMS7003;68406;53.914;27.416;2023-06-26T18:46:59;4.9;4.3;3.5
78999;PMS7003;68406;53.914;27.416;2023-06-26T18:52:23;5.4;4.5;3.5
78999;PMS7003;68406;53.914;27.416;2023-06-26T18:57:33;5.2;4.8;3.7
78999;PMS7003;68406;53.914;27.416;2023-06-26T19:02:21;5.3;4.6;3.6
78999;PMS7003;68406;53.914;27.416;2023-06-26T19:07:17;5;4.4;3.7
78999;PMS7003;68406;53.914;27.416;2023-06-26T19:12:15;6.3;5.5;4.2
78999;PMS7003;68406;53.914;27.416;2023-06-26T19:17:51;6.3;5.3;4.5
78999;PMS7003;68406;53.914;27.416;2023-06-26T19:22:01;7.3;7.2;5.9
78999;PMS7003;68406;53.914;27.416;2023-06-26T19:27:13;10.5;8.9;7.3
78999;PMS7003;68406;53.914;27.416;2023-06-26T19:32:51;10.2;9.1;7.5
78999;PMS7003;68406;53.914;27.416;2023-06-26T19:37:03;11;9.9;7.8
78999;PMS7003;68406;53.914;27.416;2023-06-26T19:42:17;9.7;9.4;7.4
78999;PMS7003;68406;53.914;27.416;2023-06-26T19:47:15;10.6;9.2;7.2
78999;PMS7003;68406;53.914;27.416;2023-06-26T19:52:35;10.5;9.1;7.6
78999;PMS7003;68406;53.914;27.416;2023-06-26T19:57:41;11.3;10.3;8.2
78999;PMS7003;68406;53.914;27.416;2023-06-26T20:02:11;10.8;9.8;8.1
78999;PMS7003;68406;53.914;27.416;2023-06-26T20:07:51;11.7;9.9;8.2
78999;PMS7003;68406;53.914;27.416;2023-06-26T20:12:35;11.8;10.6;8.7
78999;PMS7003;68406;53.914;27.416;2023-06-26T20:17:35;12.8;11.1;8.7
78999;PMS7003;68406;53.914;27.416;2023-06-26T20:22:23;10.1;9.2;7.5
78999;PMS7003;68406;53.914;27.416;2023-06-26T20:27:02;9.1;7.9;6.5
78999;PMS7003;68406;53.914;27.416;2023-06-26T20:32:01;10.3;9.1;7.2
78999;PMS7003;68406;53.914;27.416;2023-06-26T20:37:49;9.8;8.4;6.9
78999;PMS7003;68406;53.914;27.416;2023-06-26T20:42:17;8.1;7.4;5.8
78999;PMS7003;68406;53.914;27.416;2023-06-26T20:47:35;9.7;8.2;6.6
78999;PMS7003;68406;53.914;27.416;2023-06-26T20:52:35;11.4;10.1;8.1
78999;PMS7003;68406;53.914;27.416;2023-06-26T20:57:35;11.8;11;8.9
78999;PMS7003;68406;53.914;27.416;2023-06-26T21:02:33;11.5;10.4;8.1
78999;PMS7003;68406;53.914;27.416;2023-06-26T21:07:39;9.7;8.9;7.3
78999;PMS7003;68406;53.914;27.416;2023-06-26T21:12:49;9;7.8;6.4
78999;PMS7003;68406;53.914;27.416;2023-06-26T21:17:49;7.7;7.2;5.5
78999;PMS7003;68406;53.914;27.416;2023-06-26T21:22:47;8.3;7.4;5.9
78999;PMS7003;68406;53.914;27.416;2023-06-26T21:27:49;10.3;9.2;7.1
78999;PMS7003;68406;53.914;27.416;2023-06-26T21:32:01;11.7;10.3;8.2
78999;PMS7003;68406;53.914;27.416;2023-06-26T21:37:13;14.1;12.5;9.5
78999;PMS7003;68406;53.914;27.416;2023-06-26T21:42:39;15.2;13.7;10.3
78999;PMS7003;68406;53.914;27.416;2023-06-26T21:47:49;11.9;10;7.7
78999;PMS7003;68406;53.914;27.416;2023-06-26T21:52:19;10.6;9.5;7.4
78999;PMS7003;68406;53.914;27.416;2023-06-26T21:57:41;12.3;10.8;8.4
78999;PMS7003;68406;53.914;27.416;2023-06-26T22:02:51;13.6;12.3;9.1
78999;PMS7003;68406;53.914;27.416;2023-06-26T22:07:01;14.3;13;9.9
78999;PMS7003;68406;53.914;27.416;2023-06-26T22:12:23;12.9;11.5;8.7
78999;PMS7003;68406;53.914;27.416;2023-06-26T22:17:01;10.6;9.8;7.5
78999;PMS7003;68406;53.914;27.416;2023-06-26T22:22:49;10.7;9.4;7.4
78999;PMS7003;68406;53.914;27.416;2023-06-26T22:27:21;8.3;7.9;5.9
78999;PMS7003;68406;53.914;27.416;2023-06-26T22:32:27;8.1;7.2;5.7
78999;PMS7003;68406;53.914;27.416;2023-06-26T22:37:15;7.5;6.4;4.8
78999;PMS7003;68406;53.914;27.416;2023-06-26T22:42:19;7.3;6.6;5
78999;PMS7003;68406;53.914;27.416;2023-06-26T22:47:37;7.8;6.4;5
78999;PMS7003;68406;53.914;27.416;2023-06-26T22:52:25;7.6;6.3;5.2
78999;PMS7003;68406;53.914;27.416;2023-06-26T22:57:19;8.5;6.9;5.1
78999;PMS7003;68406;53.914;27.416;2023-06-26T23:02:13;6.7;5.5;4.4
78999;PMS7003;68406;53.914;27.416;2023-06-26T23:07:49;6.4;5.8;4.7
78999;PMS7003;68406;53.914;27.416;2023-06-26T23:12:01;6.7;5.7;4.4
78999;PMS7003;68406;53.914;27.416;2023-06-26T23:17:25;5.6;5.4;4.3
78999;PMS7003;68406;53.914;27.416;2023-06-26T23:22:36;5.7;5;3.8
78999;PMS7003;68406;53.914;27.416;2023-06-26T23:27:11;5.6;4.9;3.8
78999;PMS7003;68406;53.914;27.416;2023-06-26T23:32:33;7.6;6.2;5
78999;PMS7003;68406;53.914;27.416;2023-06-26T23:37:15;7.5;6.3;4.8
78999;PMS7003;68406;53.914;27.416;2023-06-26T23:42:51;11.1;9.9;7.3
78999;PMS7003;68406;53.914;27.416;2023-06-26T23:47:11;10.8;8.9;6.4
78999;PMS7003;68406;53.914;27.416;2023-06-26T23:52:01;12.7;11.2;8.5
78999;PMS7003;68406;53.914;27.416;2023-06-26T23:57:49;11.7;10.3;7.8
